Ana Sayfa
METAR-TAF:

METAR-TAF

Havaalanları :

Metropolis Municipal Airport

Metropolis, Illinois, Amerika Birleşik Devletleri

Enlem: 37-11-09N, Boylam: 088-45-02W, yükseklik: 117 m

Güncel hava durumu gözlemi

Rapor saat 10:55 UTC de 26 dakika önce yapıldı.
Sakin rüzgar
Sıcaklık 20°C
Nem 94%
Basınç 1014 hPa
Görüş mesafesi: 16.1 km
600 ft yükseklikte çok bulutlu

METAR: KM30 231055Z AUTO 00000KT 10SM OVC006 20/19 A2993 RMK AO2 LTG DSNT N AND NW T01970192

Saat: 06:21 (11:21 UTC)


TAF: eksik

4.000'den fazla havaalanı için hava durumu gözlemleri ve tahminleri (METAR ve TAF raporları).

Kullanılabilir istasyonlar harita üzerinde sarı ve kırmızı noktalarla gösterilir.

İstasyonun adını görmek için fareyi noktanın üzerinde gezdirin.

Sonrasında hava gözlem ve tahminlerini görmek için tıklayın.

Haritayı değiştirmek için: yaklaştırmak için siyah artı işaretli yeşil düğmeye ve uzaklaştırmak için de eksi işaretli düğmeye hızla tıklayın; bitişik haritalar için yeşil okları kullanın.


METAR-TAF: